Time;durP1;ratioP1;P1;durP2;ratioP2;P2;SDS_P1;SDS_P2;PMS_P1;PMS_P2;Temp;Humidity;BMP_temperature;BMP_pressure;BME280_temperature;BME280_humidity;BME280_pressure;Samples;Min_cycle;Max_cycle;Signal;HPM_P1;HPM_P2
2023/12/14 00:01:10;;;;;;;6.60;2.55;;;;;;;;;;8263648;28;21082;-55
2023/12/14 00:05:10;;;;;;;4.57;2.30;;;;;;;;;;8264211;28;21257;-57
2023/12/14 00:09:10;;;;;;;13.85;5.88;;;;;;;;;;8263491;28;21521;-56
2023/12/14 00:13:10;;;;;;;10.95;3.72;;;;;;;;;;8264676;28;20026;-55
2023/12/14 00:17:11;;;;;;;4.50;2.55;;;;;;;;;;8260889;28;20160;-57
2023/12/14 00:21:11;;;;;;;5.32;2.55;;;;;;;;;;8256925;28;20147;-57
2023/12/14 00:25:11;;;;;;;5.68;2.40;;;;;;;;;;8242844;28;20561;-57
2023/12/14 00:29:11;;;;;;;3.58;2.00;;;;;;;;;;8263311;28;20951;-56
2023/12/14 00:33:12;;;;;;;5.20;2.20;;;;;;;;;;8261507;28;20046;-56
2023/12/14 00:37:12;;;;;;;5.38;2.47;;;;;;;;;;8264640;28;20040;-57
2023/12/14 00:41:12;;;;;;;6.53;2.28;;;;;;;;;;8260166;28;20028;-59
2023/12/14 00:45:12;;;;;;;5.35;2.50;;;;;;;;;;8259284;28;20048;-57
2023/12/14 00:49:13;;;;;;;5.55;2.70;;;;;;;;;;8258814;28;20025;-57
2023/12/14 00:53:13;;;;;;;2.63;2.20;;;;;;;;;;8256938;28;20117;-59
2023/12/14 00:57:13;;;;;;;4.38;2.35;;;;;;;;;;8254398;28;20024;-57
2023/12/14 01:01:13;;;;;;;5.22;2.40;;;;;;;;;;8259079;28;20037;-57
2023/12/14 01:05:13;;;;;;;4.50;2.17;;;;;;;;;;8258131;28;20116;-57
2023/12/14 01:09:13;;;;;;;3.75;2.22;;;;;;;;;;8256984;28;20025;-57
2023/12/14 01:13:14;;;;;;;3.50;2.33;;;;;;;;;;8259634;28;20029;-57
2023/12/14 01:17:14;;;;;;;5.88;2.50;;;;;;;;;;8262393;28;20029;-57
2023/12/14 01:21:14;;;;;;;4.38;2.10;;;;;;;;;;8259622;28;20032;-57
2023/12/14 01:25:14;;;;;;;3.33;2.22;;;;;;;;;;8257522;28;20033;-56
2023/12/14 01:29:14;;;;;;;3.88;2.40;;;;;;;;;;8263568;28;20022;-57
2023/12/14 01:33:15;;;;;;;3.72;2.05;;;;;;;;;;8261046;28;20038;-57
2023/12/14 01:37:15;;;;;;;4.10;1.70;;;;;;;;;;8261077;28;20025;-58
2023/12/14 01:41:15;;;;;;;3.70;2.20;;;;;;;;;;8255368;28;20025;-58
2023/12/14 01:45:16;;;;;;;5.75;2.50;;;;;;;;;;8257055;28;20099;-58
2023/12/14 01:49:16;;;;;;;5.03;2.03;;;;;;;;;;8258586;28;20026;-57
2023/12/14 01:53:16;;;;;;;4.65;2.85;;;;;;;;;;8260844;28;20036;-57
2023/12/14 01:57:17;;;;;;;3.58;2.08;;;;;;;;;;8259938;28;20030;-58
2023/12/14 02:01:28;;;;;;;4.87;2.60;;;;;;;;;;8257416;28;20029;-57
2023/12/14 02:05:28;;;;;;;3.53;1.98;;;;;;;;;;8260845;28;20282;-57
2023/12/14 02:09:28;;;;;;;6.05;2.63;;;;;;;;;;8255631;28;20144;-57
2023/12/14 02:13:28;;;;;;;3.25;2.10;;;;;;;;;;8261961;28;20036;-57
2023/12/14 02:17:28;;;;;;;3.05;2.20;;;;;;;;;;8255219;28;20065;-56
2023/12/14 02:21:29;;;;;;;2.53;1.97;;;;;;;;;;8249174;28;20140;-57
2023/12/14 02:25:29;;;;;;;4.28;2.33;;;;;;;;;;8254062;28;20030;-57
2023/12/14 02:29:29;;;;;;;6.22;2.20;;;;;;;;;;8256307;28;20040;-55
2023/12/14 02:33:29;;;;;;;4.25;2.20;;;;;;;;;;8256451;28;20045;-57
2023/12/14 02:37:30;;;;;;;3.38;2.20;;;;;;;;;;8253334;28;20029;-57
2023/12/14 02:41:30;;;;;;;3.30;1.93;;;;;;;;;;8256921;28;20099;-57
2023/12/14 02:45:30;;;;;;;9.05;2.40;;;;;;;;;;8253686;28;20264;-57
2023/12/14 02:49:31;;;;;;;1.90;1.80;;;;;;;;;;8254627;28;20113;-56
2023/12/14 02:53:31;;;;;;;4.80;1.80;;;;;;;;;;8256093;28;20112;-57
2023/12/14 02:57:31;;;;;;;5.22;1.90;;;;;;;;;;8259135;28;20025;-57
2023/12/14 03:01:32;;;;;;;3.28;1.80;;;;;;;;;;8256584;28;20037;-57
2023/12/14 03:05:32;;;;;;;6.07;2.45;;;;;;;;;;8256133;28;20092;-56
2023/12/14 03:09:32;;;;;;;4.50;1.80;;;;;;;;;;8258159;28;20033;-56
2023/12/14 03:13:33;;;;;;;4.28;2.20;;;;;;;;;;8253952;28;27256;-57
2023/12/14 03:17:33;;;;;;;3.90;2.40;;;;;;;;;;8257502;28;20026;-56
2023/12/14 03:21:33;;;;;;;6.47;2.30;;;;;;;;;;8264377;28;20029;-56
2023/12/14 03:25:33;;;;;;;7.28;2.60;;;;;;;;;;8267367;28;20141;-57
2023/12/14 03:29:35;;;;;;;3.05;1.77;;;;;;;;;;8263799;28;20095;-57
2023/12/14 03:33:35;;;;;;;3.50;2.10;;;;;;;;;;8262322;28;20068;-56
2023/12/14 03:37:35;;;;;;;3.20;1.95;;;;;;;;;;8264709;28;20033;-56
2023/12/14 03:41:36;;;;;;;5.28;2.40;;;;;;;;;;8263022;28;20032;-57
2023/12/14 03:45:36;;;;;;;4.68;2.08;;;;;;;;;;8267292;28;20037;-57
2023/12/14 03:49:37;;;;;;;5.47;1.92;;;;;;;;;;8262371;28;20235;-57
2023/12/14 03:53:37;;;;;;;5.07;2.13;;;;;;;;;;8263075;28;20910;-56
2023/12/14 03:57:37;;;;;;;3.15;2.60;;;;;;;;;;8262588;28;20663;-57
2023/12/14 04:01:39;;;;;;;3.67;2.00;;;;;;;;;;8260358;28;20128;-57
2023/12/14 04:05:40;;;;;;;2.50;2.17;;;;;;;;;;8259020;28;20040;-57
2023/12/14 04:09:40;;;;;;;3.53;1.80;;;;;;;;;;8266256;28;20530;-55
2023/12/14 04:13:40;;;;;;;4.72;2.33;;;;;;;;;;8264508;28;21545;-56
2023/12/14 04:17:40;;;;;;;4.95;1.98;;;;;;;;;;8262944;28;20124;-57
2023/12/14 04:21:41;;;;;;;4.18;2.10;;;;;;;;;;8264604;28;20126;-56
2023/12/14 04:25:41;;;;;;;2.75;1.88;;;;;;;;;;8266191;28;20028;-56
2023/12/14 04:29:41;;;;;;;5.25;2.15;;;;;;;;;;8267414;28;20462;-57
2023/12/14 04:33:41;;;;;;;3.80;1.60;;;;;;;;;;8264823;28;20044;-56
2023/12/14 04:37:41;;;;;;;5.57;1.90;;;;;;;;;;8261098;28;20026;-56
2023/12/14 04:41:42;;;;;;;3.53;1.70;;;;;;;;;;8265309;28;20031;-57
2023/12/14 04:45:44;;;;;;;2.65;1.50;;;;;;;;;;8265577;28;20627;-57
2023/12/14 04:49:44;;;;;;;4.10;1.50;;;;;;;;;;8267913;28;20760;-57
2023/12/14 04:53:44;;;;;;;3.83;1.80;;;;;;;;;;8264724;28;20048;-58
2023/12/14 04:57:46;;;;;;;4.40;2.17;;;;;;;;;;8265703;28;20991;-57
2023/12/14 05:01:46;;;;;;;2.78;1.67;;;;;;;;;;8258446;28;20037;-56
2023/12/14 05:05:46;;;;;;;3.97;1.95;;;;;;;;;;8258654;28;20608;-57
2023/12/14 05:09:46;;;;;;;4.83;2.00;;;;;;;;;;8263594;28;20128;-56
2023/12/14 05:13:47;;;;;;;3.83;1.92;;;;;;;;;;8261537;28;20296;-57
2023/12/14 05:17:47;;;;;;;3.47;2.40;;;;;;;;;;8262523;28;20041;-57
2023/12/14 05:21:47;;;;;;;2.85;2.05;;;;;;;;;;8260153;28;20029;-56
2023/12/14 05:25:47;;;;;;;5.15;2.38;;;;;;;;;;8257576;28;20029;-57
2023/12/14 05:29:48;;;;;;;5.40;2.50;;;;;;;;;;8260110;28;20063;-56
2023/12/14 05:33:49;;;;;;;6.18;2.72;;;;;;;;;;8254995;28;20089;-57
2023/12/14 05:37:49;;;;;;;5.13;2.95;;;;;;;;;;8254368;28;20082;-57
2023/12/14 05:41:50;;;;;;;7.13;3.22;;;;;;;;;;8260059;28;20048;-57
2023/12/14 05:45:50;;;;;;;4.55;2.42;;;;;;;;;;8255681;28;20056;-57
2023/12/14 05:49:50;;;;;;;7.20;2.25;;;;;;;;;;8258085;28;20036;-58
2023/12/14 05:53:50;;;;;;;5.28;2.38;;;;;;;;;;8254992;28;20101;-57
2023/12/14 05:57:50;;;;;;;2.97;2.10;;;;;;;;;;8258989;28;20026;-57
2023/12/14 06:01:56;;;;;;;5.75;2.78;;;;;;;;;;8254186;28;20079;-57
2023/12/14 06:05:56;;;;;;;7.43;3.40;;;;;;;;;;8254117;28;20132;-56
2023/12/14 06:09:57;;;;;;;6.70;3.25;;;;;;;;;;8252653;28;20156;-57
2023/12/14 06:13:57;;;;;;;9.07;3.60;;;;;;;;;;8252178;28;20037;-55
2023/12/14 06:17:57;;;;;;;6.47;3.40;;;;;;;;;;8252002;28;20292;-57
2023/12/14 06:21:57;;;;;;;11.07;3.67;;;;;;;;;;8258280;28;20033;-56
2023/12/14 06:25:58;;;;;;;4.38;2.80;;;;;;;;;;8254926;28;20038;-58
2023/12/14 06:29:58;;;;;;;10.20;3.35;;;;;;;;;;8254474;28;20839;-56
2023/12/14 06:34:00;;;;;;;10.65;2.75;;;;;;;;;;8251694;28;20042;-56
2023/12/14 06:38:00;;;;;;;6.97;2.72;;;;;;;;;;8255248;28;20022;-57
2023/12/14 06:42:00;;;;;;;7.13;2.90;;;;;;;;;;8252445;28;20033;-56
2023/12/14 06:46:01;;;;;;;4.68;2.50;;;;;;;;;;8251915;28;20481;-57
2023/12/14 06:50:01;;;;;;;7.53;3.13;;;;;;;;;;8253643;28;20327;-57
2023/12/14 06:54:01;;;;;;;7.00;3.40;;;;;;;;;;8252393;28;20026;-58
2023/12/14 06:58:01;;;;;;;5.80;2.83;;;;;;;;;;8254264;28;20021;-57
2023/12/14 07:02:02;;;;;;;7.40;3.00;;;;;;;;;;8251323;28;20354;-57
2023/12/14 07:06:02;;;;;;;4.03;3.13;;;;;;;;;;8250574;28;20041;-58
2023/12/14 07:10:03;;;;;;;8.23;3.00;;;;;;;;;;8245858;28;20200;-58
2023/12/14 07:14:03;;;;;;;9.70;3.35;;;;;;;;;;8248353;28;20037;-58
2023/12/14 07:18:03;;;;;;;9.90;3.65;;;;;;;;;;8252175;28;21043;-59
2023/12/14 07:22:03;;;;;;;14.70;4.20;;;;;;;;;;8257687;28;20032;-56
2023/12/14 07:26:04;;;;;;;5.65;3.50;;;;;;;;;;8259155;28;20021;-56
2023/12/14 07:30:04;;;;;;;6.57;3.45;;;;;;;;;;8259104;28;20036;-55
2023/12/14 07:34:04;;;;;;;7.18;4.25;;;;;;;;;;8259231;28;20028;-55
2023/12/14 07:38:04;;;;;;;6.88;4.35;;;;;;;;;;8255002;28;20018;-56
2023/12/14 07:42:05;;;;;;;9.55;4.78;;;;;;;;;;8254723;28;20472;-57
2023/12/14 07:46:05;;;;;;;10.77;4.07;;;;;;;;;;8254871;28;20037;-57
2023/12/14 07:50:06;;;;;;;6.80;4.13;;;;;;;;;;8255546;28;20021;-58
2023/12/14 07:54:06;;;;;;;7.38;5.07;;;;;;;;;;8252907;28;20024;-58
2023/12/14 07:58:06;;;;;;;10.25;4.35;;;;;;;;;;8251852;28;20022;-57
2023/12/14 08:02:06;;;;;;;8.27;4.03;;;;;;;;;;8249670;28;20467;-57
2023/12/14 08:06:07;;;;;;;9.60;4.28;;;;;;;;;;8254949;28;20033;-57
2023/12/14 08:10:07;;;;;;;8.53;4.50;;;;;;;;;;8254448;28;20025;-57
2023/12/14 08:14:08;;;;;;;6.60;4.15;;;;;;;;;;8259148;28;20295;-57
2023/12/14 08:18:08;;;;;;;6.40;4.30;;;;;;;;;;8259210;28;20081;-56
2023/12/14 08:22:12;;;;;;;6.50;4.38;;;;;;;;;;8258751;28;20128;-57
2023/12/14 08:26:12;;;;;;;6.53;4.70;;;;;;;;;;8258637;28;20128;-57
2023/12/14 08:30:13;;;;;;;12.57;5.60;;;;;;;;;;8257279;28;20125;-57
2023/12/14 08:34:13;;;;;;;11.10;5.60;;;;;;;;;;8258197;28;20033;-56
2023/12/14 08:38:13;;;;;;;10.43;5.07;;;;;;;;;;8255682;28;20018;-57
2023/12/14 08:42:13;;;;;;;12.30;5.80;;;;;;;;;;8255615;28;20379;-56
2023/12/14 08:46:14;;;;;;;10.23;5.20;;;;;;;;;;8258240;28;20034;-57
2023/12/14 08:50:14;;;;;;;8.20;4.50;;;;;;;;;;8254779;28;20795;-57
2023/12/14 08:54:14;;;;;;;10.30;6.50;;;;;;;;;;8253491;28;20061;-57
2023/12/14 08:58:14;;;;;;;8.65;5.65;;;;;;;;;;8253958;28;20098;-57
2023/12/14 09:02:15;;;;;;;6.95;5.15;;;;;;;;;;8254556;28;20036;-57
2023/12/14 09:06:16;;;;;;;9.48;5.72;;;;;;;;;;8253057;28;20025;-56
2023/12/14 09:10:16;;;;;;;7.75;5.40;;;;;;;;;;8249508;28;20036;-57
2023/12/14 09:14:16;;;;;;;7.97;5.73;;;;;;;;;;8250630;28;20025;-56
2023/12/14 09:18:17;;;;;;;8.88;5.82;;;;;;;;;;8250064;28;20283;-56
2023/12/14 09:22:17;;;;;;;5.82;4.80;;;;;;;;;;8252527;28;20025;-57
2023/12/14 09:26:17;;;;;;;5.75;4.43;;;;;;;;;;8254218;28;20021;-57
2023/12/14 09:30:17;;;;;;;8.27;4.10;;;;;;;;;;8252645;28;20053;-56
2023/12/14 09:34:18;;;;;;;6.82;4.88;;;;;;;;;;8250820;28;20025;-58
2023/12/14 09:38:19;;;;;;;5.90;4.25;;;;;;;;;;8254058;28;20029;-57
2023/12/14 09:42:22;;;;;;;9.73;3.83;;;;;;;;;;8249053;28;20029;-57
2023/12/14 09:46:23;;;;;;;5.60;3.80;;;;;;;;;;8251460;28;20504;-57
2023/12/14 09:50:23;;;;;;;7.10;4.38;;;;;;;;;;8253205;28;20346;-56
2023/12/14 09:54:25;;;;;;;6.63;4.68;;;;;;;;;;8252774;28;20026;-57
2023/12/14 09:58:25;;;;;;;6.53;4.07;;;;;;;;;;8255488;28;20017;-57
2023/12/14 10:02:26;;;;;;;7.20;5.25;;;;;;;;;;8254228;28;21051;-56
2023/12/14 10:06:26;;;;;;;8.20;5.05;;;;;;;;;;8255492;28;20281;-57
2023/12/14 10:10:28;;;;;;;8.75;5.88;;;;;;;;;;8253242;28;20026;-56
2023/12/14 10:14:29;;;;;;;5.45;4.85;;;;;;;;;;8252236;28;20099;-57
2023/12/14 10:18:31;;;;;;;6.78;5.32;;;;;;;;;;8252681;28;20042;-57
2023/12/14 10:22:32;;;;;;;6.85;5.50;;;;;;;;;;8250881;28;20025;-57
2023/12/14 10:26:32;;;;;;;7.03;5.65;;;;;;;;;;8248727;28;20834;-56
2023/12/14 10:30:32;;;;;;;6.30;5.18;;;;;;;;;;8248531;28;20160;-57
2023/12/14 10:34:33;;;;;;;7.47;5.07;;;;;;;;;;8253059;28;20026;-57
2023/12/14 10:38:36;;;;;;;6.95;4.82;;;;;;;;;;8255597;28;20053;-56
2023/12/14 10:42:38;;;;;;;6.28;4.88;;;;;;;;;;8253064;28;20017;-56
2023/12/14 10:46:39;;;;;;;5.85;4.95;;;;;;;;;;8249341;28;20046;-56
2023/12/14 10:50:42;;;;;;;5.82;5.20;;;;;;;;;;8256861;28;20025;-56
2023/12/14 10:54:44;;;;;;;8.40;5.10;;;;;;;;;;8253041;28;20018;-57
2023/12/14 10:58:48;;;;;;;6.40;4.78;;;;;;;;;;8254355;28;20056;-56
2023/12/14 11:02:48;;;;;;;;;;;;;;;;;;8254962;28;20140;-57
2023/12/14 11:06:48;;;;;;;7.18;4.80;;;;;;;;;;8255161;28;20011;-56
2023/12/14 11:10:59;;;;;;;6.93;4.75;;;;;;;;;;8250514;28;20025;-58
2023/12/14 11:15:00;;;;;;;5.50;4.68;;;;;;;;;;8250767;28;20025;-56
2023/12/14 11:19:18;;;;;;;8.80;5.00;;;;;;;;;;8247542;28;20040;-58
2023/12/14 11:23:25;;;;;;;5.13;4.05;;;;;;;;;;8249359;28;20302;-57
2023/12/14 11:27:26;;;;;;;5.53;4.10;;;;;;;;;;8252080;28;20486;-56
2023/12/14 11:31:28;;;;;;;4.30;3.83;;;;;;;;;;8257833;28;20047;-62
2023/12/14 11:35:28;;;;;;;4.28;3.58;;;;;;;;;;8260400;28;20025;-55
2023/12/14 11:39:31;;;;;;;5.25;4.10;;;;;;;;;;8256669;28;20721;-57
2023/12/14 11:43:42;;;;;;;6.18;3.78;;;;;;;;;;8263067;28;20501;-56
2023/12/14 11:47:42;;;;;;;3.92;3.47;;;;;;;;;;8258511;28;20390;-57
2023/12/14 11:51:45;;;;;;;4.85;3.70;;;;;;;;;;8262393;28;20104;-56
2023/12/14 11:55:45;;;;;;;3.15;2.83;;;;;;;;;;8264488;28;20597;-58
2023/12/14 11:59:45;;;;;;;3.60;3.00;;;;;;;;;;8265707;28;20032;-58
2023/12/14 12:03:46;;;;;;;3.60;2.65;;;;;;;;;;8263286;28;21049;-57
2023/12/14 12:07:46;;;;;;;3.50;2.50;;;;;;;;;;8265308;28;20028;-57
2023/12/14 12:11:48;;;;;;;3.78;2.40;;;;;;;;;;8255720;28;20470;-57
2023/12/14 12:15:48;;;;;;;3.17;2.60;;;;;;;;;;8251766;28;20520;-57
2023/12/14 12:19:49;;;;;;;4.93;2.83;;;;;;;;;;8255833;28;20025;-55
2023/12/14 12:23:49;;;;;;;2.75;2.33;;;;;;;;;;8254307;28;20029;-57
2023/12/14 12:27:49;;;;;;;3.22;2.42;;;;;;;;;;8259965;28;20032;-58
2023/12/14 12:31:49;;;;;;;3.10;2.80;;;;;;;;;;8258021;28;20053;-57
2023/12/14 12:35:50;;;;;;;3.28;2.20;;;;;;;;;;8256709;28;20107;-57
2023/12/14 12:39:50;;;;;;;3.47;2.70;;;;;;;;;;8258481;28;20136;-56
2023/12/14 12:43:50;;;;;;;3.55;2.88;;;;;;;;;;8257446;28;20060;-57
2023/12/14 12:47:51;;;;;;;4.07;2.70;;;;;;;;;;8258774;28;20039;-57
2023/12/14 12:51:51;;;;;;;4.13;3.08;;;;;;;;;;8254716;28;20017;-57
2023/12/14 12:55:51;;;;;;;2.38;2.17;;;;;;;;;;8252868;28;20028;-57
2023/12/14 12:59:51;;;;;;;2.70;2.40;;;;;;;;;;8256643;28;20029;-58
2023/12/14 13:03:56;;;;;;;2.97;2.15;;;;;;;;;;8256069;28;20045;-56
2023/12/14 13:07:57;;;;;;;2.20;2.00;;;;;;;;;;8251635;28;20021;-57
2023/12/14 13:11:57;;;;;;;2.28;2.08;;;;;;;;;;8248367;28;20119;-58
2023/12/14 13:15:57;;;;;;;1.90;1.80;;;;;;;;;;8248832;28;20034;-57
2023/12/14 13:19:58;;;;;;;1.70;1.60;;;;;;;;;;8260861;28;20340;-55
2023/12/14 13:23:58;;;;;;;1.92;1.70;;;;;;;;;;8257709;28;20123;-56
2023/12/14 13:27:58;;;;;;;1.80;1.70;;;;;;;;;;8256698;28;20755;-56
2023/12/14 13:32:01;;;;;;;2.17;1.90;;;;;;;;;;8247535;28;20981;-57
2023/12/14 13:36:01;;;;;;;1.70;1.60;;;;;;;;;;8250867;28;20088;-57
2023/12/14 13:40:03;;;;;;;2.13;1.75;;;;;;;;;;8249385;28;20815;-57
2023/12/14 13:44:03;;;;;;;2.35;1.90;;;;;;;;;;8247549;28;20032;-58
2023/12/14 13:48:04;;;;;;;2.17;1.98;;;;;;;;;;8250924;28;20041;-57
2023/12/14 13:52:04;;;;;;;2.35;1.83;;;;;;;;;;8248555;28;20025;-57
2023/12/14 13:56:04;;;;;;;2.10;1.90;;;;;;;;;;8247717;28;20084;-57
2023/12/14 14:00:05;;;;;;;1.73;1.63;;;;;;;;;;8251602;28;20372;-59
2023/12/14 14:04:06;;;;;;;1.55;1.45;;;;;;;;;;8251769;28;20272;-56
2023/12/14 14:08:06;;;;;;;2.03;1.60;;;;;;;;;;8250728;28;20033;-57
2023/12/14 14:12:06;;;;;;;2.03;1.80;;;;;;;;;;8249139;28;20021;-57
2023/12/14 14:16:07;;;;;;;2.20;1.77;;;;;;;;;;8245948;28;20030;-57
2023/12/14 14:20:09;;;;;;;2.00;1.80;;;;;;;;;;8243595;28;20015;-56
2023/12/14 14:24:09;;;;;;;1.80;1.70;;;;;;;;;;8246513;28;20029;-57
2023/12/14 14:28:10;;;;;;;1.70;1.60;;;;;;;;;;8253481;28;20141;-58
2023/12/14 14:32:10;;;;;;;2.10;1.90;;;;;;;;;;8248885;28;20284;-57
2023/12/14 14:36:10;;;;;;;1.80;1.70;;;;;;;;;;8250656;28;20026;-57
2023/12/14 14:40:13;;;;;;;1.70;1.60;;;;;;;;;;8252616;28;20049;-56
2023/12/14 14:44:13;;;;;;;1.63;1.52;;;;;;;;;;8254355;28;20060;-58
2023/12/14 14:48:13;;;;;;;1.70;1.60;;;;;;;;;;8253579;28;20936;-57
2023/12/14 14:52:15;;;;;;;1.92;1.80;;;;;;;;;;8253122;28;20032;-57
2023/12/14 14:56:15;;;;;;;2.97;2.35;;;;;;;;;;8257229;28;20132;-62
2023/12/14 15:00:15;;;;;;;2.70;2.45;;;;;;;;;;8256749;28;20049;-56
2023/12/14 15:04:16;;;;;;;4.10;2.72;;;;;;;;;;8256051;28;20781;-56
2023/12/14 15:08:16;;;;;;;4.18;2.90;;;;;;;;;;8250774;28;20033;-57
2023/12/14 15:12:16;;;;;;;3.07;2.70;;;;;;;;;;8251479;28;20025;-57
2023/12/14 15:16:18;;;;;;;3.55;2.67;;;;;;;;;;8251572;28;20041;-56
2023/12/14 15:20:18;;;;;;;3.28;1.95;;;;;;;;;;8255481;28;20576;-57
2023/12/14 15:24:18;;;;;;;1.70;1.60;;;;;;;;;;8257640;28;20144;-57
2023/12/14 15:28:18;;;;;;;1.60;1.50;;;;;;;;;;8260209;28;20113;-58
2023/12/14 15:32:18;;;;;;;1.30;1.20;;;;;;;;;;8258691;28;20056;-55
2023/12/14 15:36:19;;;;;;;1.08;0.98;;;;;;;;;;8254779;28;20128;-55
2023/12/14 15:40:19;;;;;;;1.90;1.43;;;;;;;;;;8260480;28;20013;-54
2023/12/14 15:44:19;;;;;;;1.20;1.10;;;;;;;;;;8259369;28;20902;-55
2023/12/14 15:48:19;;;;;;;3.78;1.20;;;;;;;;;;8257039;28;20876;-57
2023/12/14 15:52:20;;;;;;;1.50;1.40;;;;;;;;;;8252209;28;20025;-56
2023/12/14 15:56:22;;;;;;;2.63;1.70;;;;;;;;;;8254428;28;20025;-57
2023/12/14 16:00:22;;;;;;;2.08;1.90;;;;;;;;;;8254484;28;20036;-58
2023/12/14 16:04:23;;;;;;;2.30;2.10;;;;;;;;;;8255181;28;20091;-56
2023/12/14 16:08:23;;;;;;;2.20;1.80;;;;;;;;;;8250382;28;20030;-62
2023/12/14 16:12:23;;;;;;;2.20;2.00;;;;;;;;;;8253835;28;20041;-56
2023/12/14 16:16:24;;;;;;;3.17;1.73;;;;;;;;;;8253154;28;20045;-57
2023/12/14 16:20:25;;;;;;;2.05;1.85;;;;;;;;;;8254748;28;20029;-57
2023/12/14 16:24:25;;;;;;;2.33;1.88;;;;;;;;;;8249738;28;20065;-55
2023/12/14 16:28:26;;;;;;;2.35;2.15;;;;;;;;;;8252900;28;20054;-56
2023/12/14 16:32:26;;;;;;;2.28;2.08;;;;;;;;;;8254720;28;20042;-57
2023/12/14 16:36:27;;;;;;;2.70;2.45;;;;;;;;;;8251425;28;20764;-57
2023/12/14 16:40:27;;;;;;;3.42;2.20;;;;;;;;;;8251017;28;20635;-57
2023/12/14 16:44:28;;;;;;;2.80;1.90;;;;;;;;;;8252403;28;20030;-63
2023/12/14 16:48:28;;;;;;;2.35;2.00;;;;;;;;;;8252183;28;20276;-57
2023/12/14 16:52:28;;;;;;;1.95;1.83;;;;;;;;;;8256082;28;20029;-56
2023/12/14 16:56:29;;;;;;;1.88;1.70;;;;;;;;;;8257884;28;20024;-57
2023/12/14 17:00:30;;;;;;;1.63;1.52;;;;;;;;;;8252844;28;20870;-57
2023/12/14 17:04:30;;;;;;;2.15;1.60;;;;;;;;;;8253490;28;20068;-57
2023/12/14 17:08:30;;;;;;;2.83;1.40;;;;;;;;;;8254865;28;20750;-58
2023/12/14 17:12:30;;;;;;;2.85;1.85;;;;;;;;;;8250883;28;20039;-58
2023/12/14 17:16:31;;;;;;;2.63;1.70;;;;;;;;;;8252078;28;20034;-56
2023/12/14 17:20:34;;;;;;;1.73;1.60;;;;;;;;;;8248600;28;20025;-57
2023/12/14 17:24:34;;;;;;;1.97;1.83;;;;;;;;;;8253441;28;20024;-57
2023/12/14 17:28:36;;;;;;;2.38;2.10;;;;;;;;;;8254287;28;20026;-57
2023/12/14 17:32:36;;;;;;;2.05;1.85;;;;;;;;;;8252076;28;20045;-57
2023/12/14 17:36:37;;;;;;;2.10;1.90;;;;;;;;;;8254745;28;20505;-57
2023/12/14 17:40:37;;;;;;;2.60;2.40;;;;;;;;;;8251471;28;20029;-57
2023/12/14 17:44:37;;;;;;;3.45;2.85;;;;;;;;;;8251139;28;20832;-59
2023/12/14 17:48:38;;;;;;;3.07;2.17;;;;;;;;;;8251499;28;20121;-57
2023/12/14 17:52:38;;;;;;;3.17;2.40;;;;;;;;;;8251330;28;20370;-62
2023/12/14 17:56:38;;;;;;;2.70;2.28;;;;;;;;;;8251281;28;20276;-56
2023/12/14 18:00:38;;;;;;;2.45;1.90;;;;;;;;;;8250722;28;20036;-57
2023/12/14 18:04:40;;;;;;;2.75;1.65;;;;;;;;;;8252016;28;20096;-57
2023/12/14 18:08:40;;;;;;;1.88;1.67;;;;;;;;;;8251632;28;20034;-55
2023/12/14 18:12:40;;;;;;;1.60;1.50;;;;;;;;;;8250429;28;20116;-56
2023/12/14 18:16:42;;;;;;;1.50;1.40;;;;;;;;;;8249822;28;20037;-56
2023/12/14 18:20:42;;;;;;;1.55;1.45;;;;;;;;;;8249365;28;20149;-56
2023/12/14 18:24:43;;;;;;;1.50;1.40;;;;;;;;;;8248651;28;20132;-57
2023/12/14 18:28:43;;;;;;;1.60;1.40;;;;;;;;;;8249828;28;20033;-56
2023/12/14 18:32:46;;;;;;;1.70;1.60;;;;;;;;;;8250897;28;20049;-56
2023/12/14 18:36:46;;;;;;;2.03;1.83;;;;;;;;;;8249581;28;20045;-56
2023/12/14 18:40:46;;;;;;;1.77;1.67;;;;;;;;;;8247761;28;20026;-56
2023/12/14 18:44:47;;;;;;;2.20;2.00;;;;;;;;;;8248735;28;20331;-56
2023/12/14 18:48:47;;;;;;;2.37;2.00;;;;;;;;;;8251637;28;20048;-56
2023/12/14 18:52:48;;;;;;;2.55;1.70;;;;;;;;;;8247852;28;20282;-64
2023/12/14 18:56:48;;;;;;;3.42;2.10;;;;;;;;;;8250712;28;20171;-56
2023/12/14 19:00:49;;;;;;;3.07;1.90;;;;;;;;;;8249863;28;20069;-57
2023/12/14 19:04:49;;;;;;;1.95;1.85;;;;;;;;;;8245561;28;20506;-56
2023/12/14 19:08:49;;;;;;;3.87;1.67;;;;;;;;;;8240997;28;20029;-57
2023/12/14 19:12:49;;;;;;;2.15;1.80;;;;;;;;;;8246153;28;20283;-57
2023/12/14 19:16:51;;;;;;;2.10;1.70;;;;;;;;;;8248321;28;20406;-57
2023/12/14 19:20:51;;;;;;;2.35;1.80;;;;;;;;;;8240925;28;20276;-56
2023/12/14 19:24:51;;;;;;;1.83;1.63;;;;;;;;;;8247802;28;20033;-56
2023/12/14 19:28:52;;;;;;;2.13;1.80;;;;;;;;;;8246761;28;20033;-56
2023/12/14 19:32:52;;;;;;;2.05;1.88;;;;;;;;;;8244093;28;20053;-55
2023/12/14 19:36:53;;;;;;;1.83;1.70;;;;;;;;;;8250476;28;20478;-57
2023/12/14 19:40:53;;;;;;;1.80;1.70;;;;;;;;;;8249070;28;20390;-55
2023/12/14 19:44:53;;;;;;;2.25;2.00;;;;;;;;;;8252461;28;20029;-57
2023/12/14 19:48:53;;;;;;;2.28;1.85;;;;;;;;;;8247835;28;22039;-55
2023/12/14 19:52:54;;;;;;;1.77;1.67;;;;;;;;;;8245260;28;23015;-56
2023/12/14 19:56:54;;;;;;;2.88;2.58;;;;;;;;;;8251829;28;22776;-55
2023/12/14 20:00:54;;;;;;;6.05;2.90;;;;;;;;;;8249661;28;20044;-56
2023/12/14 20:04:54;;;;;;;3.95;3.08;;;;;;;;;;8248807;28;20056;-56
2023/12/14 20:08:55;;;;;;;3.75;3.03;;;;;;;;;;8253016;28;20037;-57
2023/12/14 20:12:55;;;;;;;3.50;3.20;;;;;;;;;;8259854;28;20029;-56
2023/12/14 20:16:56;;;;;;;3.93;3.23;;;;;;;;;;8260975;28;20041;-56
2023/12/14 20:20:56;;;;;;;5.03;3.90;;;;;;;;;;8254615;28;23440;-57
2023/12/14 20:24:56;;;;;;;4.35;3.78;;;;;;;;;;8258332;28;20072;-55
2023/12/14 20:28:56;;;;;;;8.23;4.05;;;;;;;;;;8255320;28;20030;-56
2023/12/14 20:32:57;;;;;;;4.50;3.97;;;;;;;;;;8255022;28;20038;-57
2023/12/14 20:36:57;;;;;;;6.35;3.95;;;;;;;;;;8256953;28;20022;-56
2023/12/14 20:40:58;;;;;;;6.18;4.55;;;;;;;;;;8259110;28;21962;-57
2023/12/14 20:44:58;;;;;;;7.75;4.93;;;;;;;;;;8257311;28;20033;-57
2023/12/14 20:48:58;;;;;;;6.10;4.68;;;;;;;;;;8259615;28;22191;-56
2023/12/14 20:52:58;;;;;;;5.22;4.47;;;;;;;;;;8265232;28;20064;-57
2023/12/14 20:56:58;;;;;;;8.32;5.38;;;;;;;;;;8267509;28;20298;-57
2023/12/14 21:00:59;;;;;;;8.25;5.47;;;;;;;;;;8265256;28;20034;-56
2023/12/14 21:04:59;;;;;;;7.18;5.25;;;;;;;;;;8267170;28;20029;-57
2023/12/14 21:08:59;;;;;;;6.68;5.18;;;;;;;;;;8264489;28;20025;-57
2023/12/14 21:13:01;;;;;;;5.68;5.00;;;;;;;;;;8265368;28;20033;-56
2023/12/14 21:17:02;;;;;;;6.88;5.55;;;;;;;;;;8263340;28;20037;-57
2023/12/14 21:21:03;;;;;;;7.05;5.30;;;;;;;;;;8257997;28;20021;-57
2023/12/14 21:25:04;;;;;;;6.40;4.70;;;;;;;;;;8256795;28;20479;-57
2023/12/14 21:29:06;;;;;;;7.00;5.30;;;;;;;;;;8262616;28;20862;-56
2023/12/14 21:33:06;;;;;;;5.78;4.82;;;;;;;;;;8261738;28;20025;-57
2023/12/14 21:37:06;;;;;;;6.07;4.82;;;;;;;;;;8258558;28;20035;-57
2023/12/14 21:41:06;;;;;;;10.77;5.47;;;;;;;;;;8254943;28;20091;-56
2023/12/14 21:45:09;;;;;;;5.50;4.53;;;;;;;;;;8256121;28;20089;-56
2023/12/14 21:49:09;;;;;;;6.53;4.88;;;;;;;;;;8255644;28;20470;-56
2023/12/14 21:53:09;;;;;;;5.57;4.65;;;;;;;;;;8254374;28;20029;-56
2023/12/14 21:57:09;;;;;;;6.35;5.07;;;;;;;;;;8258311;28;20017;-56
2023/12/14 22:01:09;;;;;;;6.53;4.80;;;;;;;;;;8260703;28;20033;-56
2023/12/14 22:05:10;;;;;;;5.18;4.40;;;;;;;;;;8264605;28;21055;-57
2023/12/14 22:09:10;;;;;;;8.15;4.57;;;;;;;;;;8262289;28;20029;-58
2023/12/14 22:13:11;;;;;;;7.35;4.78;;;;;;;;;;8263521;28;20029;-56
2023/12/14 22:17:11;;;;;;;5.95;4.57;;;;;;;;;;8262783;28;20068;-57
2023/12/14 22:21:11;;;;;;;6.70;5.15;;;;;;;;;;8258987;28;20021;-58
2023/12/14 22:25:11;;;;;;;6.57;5.30;;;;;;;;;;8259384;28;20136;-57
2023/12/14 22:29:12;;;;;;;5.43;4.72;;;;;;;;;;8266714;28;20934;-58
2023/12/14 22:33:12;;;;;;;5.85;4.63;;;;;;;;;;8264101;28;20037;-57
2023/12/14 22:37:12;;;;;;;6.65;4.72;;;;;;;;;;8260375;28;20017;-57
2023/12/14 22:41:15;;;;;;;7.53;4.65;;;;;;;;;;8267031;28;20025;-57
2023/12/14 22:45:16;;;;;;;8.23;5.23;;;;;;;;;;8261675;28;20104;-57
2023/12/14 22:49:16;;;;;;;6.97;5.43;;;;;;;;;;8261849;28;21073;-58
2023/12/14 22:53:17;;;;;;;7.45;5.30;;;;;;;;;;8257715;28;20283;-58
2023/12/14 22:57:17;;;;;;;6.45;5.18;;;;;;;;;;8257087;28;20045;-58
2023/12/14 23:01:26;;;;;;;6.75;5.40;;;;;;;;;;8252900;28;20045;-58
2023/12/14 23:05:26;;;;;;;7.00;5.15;;;;;;;;;;8253913;28;20197;-58
2023/12/14 23:09:27;;;;;;;7.03;4.43;;;;;;;;;;8253911;28;20136;-57
2023/12/14 23:13:27;;;;;;;7.00;5.03;;;;;;;;;;8261178;28;20030;-56
2023/12/14 23:17:27;;;;;;;8.30;5.10;;;;;;;;;;8264029;28;20068;-58
2023/12/14 23:21:28;;;;;;;7.85;5.95;;;;;;;;;;8254585;28;20294;-57
2023/12/14 23:25:28;;;;;;;6.57;5.25;;;;;;;;;;8258518;28;20029;-58
2023/12/14 23:29:28;;;;;;;9.10;6.37;;;;;;;;;;8261045;28;20037;-58
2023/12/14 23:33:28;;;;;;;11.18;6.63;;;;;;;;;;8260460;28;20295;-58
2023/12/14 23:37:29;;;;;;;9.55;6.82;;;;;;;;;;8262035;28;20448;-57
2023/12/14 23:41:29;;;;;;;8.43;6.03;;;;;;;;;;8262039;28;20129;-59
2023/12/14 23:45:30;;;;;;;7.63;6.03;;;;;;;;;;8258765;28;20044;-57
2023/12/14 23:49:30;;;;;;;6.57;5.65;;;;;;;;;;8264455;28;20025;-58
2023/12/14 23:53:31;;;;;;;7.75;5.20;;;;;;;;;;8266808;28;20025;-57
2023/12/14 23:57:33;;;;;;;6.15;5.07;;;;;;;;;;8266412;28;20021;-57
